Time;durP1;ratioP1;P1;durP2;ratioP2;P2;SDS_P1;SDS_P2;PMS_P1;PMS_P2;Temp;Humidity;BMP_temperature;BMP_pressure;BME280_temperature;BME280_humidity;BME280_pressure;Samples;Min_cycle;Max_cycle;Signal;HPM_P1;HPM_P2
2022/03/02 00:00:25;;;;;;;18.23;16.07;;;;;;;0.70;65.22;99556.03;5013104;28;103231;-78
2022/03/02 00:02:53;;;;;;;17.27;15.10;;;;;;;1.12;63.49;99569.03;5009294;28;102789;-78
2022/03/02 00:05:21;;;;;;;16.73;15.02;;;;;;;1.44;62.52;99567.47;5015245;28;102989;-78
2022/03/02 00:07:51;;;;;;;18.40;16.40;;;;;;;1.00;63.78;99565.81;4990231;28;104131;-78
2022/03/02 00:10:19;;;;;;;18.48;16.33;;;;;;;0.55;65.49;99568.44;4994257;28;103249;-78
2022/03/02 00:12:47;;;;;;;14.48;13.07;;;;;;;1.38;63.50;99563.25;5009848;28;102675;-76
2022/03/02 00:15:15;;;;;;;12.95;11.63;;;;;;;1.85;61.47;99559.59;5010097;28;103617;-76
2022/03/02 00:17:43;;;;;;;15.90;14.30;;;;;;;1.75;61.49;99553.75;5014099;28;104012;-77
2022/03/02 00:20:12;;;;;;;17.20;14.80;;;;;;;1.57;61.10;99542.91;4994146;28;103008;-67
2022/03/02 00:22:41;;;;;;;18.52;16.42;;;;;;;0.92;63.74;99528.69;5012679;28;102653;-67
2022/03/02 00:25:10;;;;;;;19.90;16.20;;;;;;;0.87;64.98;99531.38;4997417;28;104050;-67
2022/03/02 00:27:38;;;;;;;19.10;16.13;;;;;;;1.21;64.00;99538.50;4989640;28;104555;-67
2022/03/02 00:30:10;;;;;;;20.67;18.40;;;;;;;1.35;62.60;99537.28;4996077;28;104254;-76
2022/03/02 00:32:38;;;;;;;18.50;16.55;;;;;;;1.18;64.25;99534.19;5010349;28;102661;-68
2022/03/02 00:35:07;;;;;;;20.38;16.73;;;;;;;1.21;64.13;99533.31;4992476;28;104363;-67
2022/03/02 00:37:36;;;;;;;19.57;17.17;;;;;;;1.25;64.62;99529.72;5009937;28;103282;-67
2022/03/02 00:40:05;;;;;;;19.83;17.80;;;;;;;1.59;63.56;99541.97;5009491;28;103183;-68
2022/03/02 00:42:34;;;;;;;18.50;16.07;;;;;;;1.95;62.31;99547.19;5010306;28;102593;-67
2022/03/02 00:45:02;;;;;;;20.60;18.40;;;;;;;1.97;61.33;99548.00;4995263;28;102787;-68
2022/03/02 00:47:30;;;;;;;27.57;23.87;;;;;;;1.88;61.49;99535.22;5012749;28;103219;-67
2022/03/02 00:49:59;;;;;;;24.50;21.90;;;;;;;1.66;64.07;99543.53;4989077;28;103207;-67
2022/03/02 00:52:27;;;;;;;20.50;18.35;;;;;;;1.92;62.32;99542.03;5006441;28;102607;-68
2022/03/02 00:54:56;;;;;;;17.98;15.40;;;;;;;2.21;61.46;99542.19;5010492;28;102791;-67
2022/03/02 00:57:24;;;;;;;14.70;13.10;;;;;;;2.38;61.22;99542.63;5006122;28;103998;-67
2022/03/02 00:59:54;;;;;;;16.35;14.48;;;;;;;2.43;60.70;99534.66;5008787;28;103211;-75
2022/03/02 01:02:22;;;;;;;17.80;15.90;;;;;;;1.58;62.73;99527.22;5012823;28;102897;-67
2022/03/02 01:04:50;;;;;;;18.17;16.30;;;;;;;0.75;67.43;99522.97;5009033;28;104068;-67
2022/03/02 01:07:18;;;;;;;18.67;15.70;;;;;;;1.47;64.69;99515.34;5008367;28;102981;-76
2022/03/02 01:09:46;;;;;;;18.77;16.80;;;;;;;1.50;64.80;99523.94;5010160;28;103216;-76
2022/03/02 01:12:14;;;;;;;18.92;16.92;;;;;;;1.77;63.88;99523.28;5007051;28;103125;-76
2022/03/02 01:14:42;;;;;;;21.45;19.15;;;;;;;1.55;64.20;99518.63;4990203;28;104183;-68
2022/03/02 01:17:11;;;;;;;20.02;17.88;;;;;;;1.01;66.44;99515.50;5013171;28;103236;-69
2022/03/02 01:19:40;;;;;;;14.98;13.50;;;;;;;1.76;64.72;99523.34;5007200;28;103292;-69
2022/03/02 01:22:08;;;;;;;17.75;15.93;;;;;;;1.93;62.37;99530.75;5010249;28;102766;-69
2022/03/02 01:24:36;;;;;;;17.95;16.02;;;;;;;1.89;63.67;99521.28;4992266;28;104363;-69
2022/03/02 01:27:05;;;;;;;14.13;12.73;;;;;;;2.18;62.51;99510.97;4991430;28;103229;-68
2022/03/02 01:29:34;;;;;;;16.17;14.52;;;;;;;2.34;61.51;99512.28;5004904;28;103168;-69
2022/03/02 01:32:02;;;;;;;20.55;17.75;;;;;;;1.71;62.62;99509.56;5007656;28;102804;-68
2022/03/02 01:34:31;;;;;;;18.73;16.47;;;;;;;1.60;64.78;99512.41;5015053;28;103898;-69
2022/03/02 01:37:00;;;;;;;17.25;15.55;;;;;;;1.97;63.85;99506.28;5007799;28;103836;-69
2022/03/02 01:39:28;;;;;;;18.67;16.67;;;;;;;1.97;62.57;99504.56;4991666;28;104269;-69
2022/03/02 01:41:56;;;;;;;18.45;16.55;;;;;;;1.94;63.10;99498.59;5007580;28;102580;-69
2022/03/02 01:44:24;;;;;;;19.67;17.67;;;;;;;0.84;66.96;99502.00;4992277;28;102991;-68
2022/03/02 01:46:52;;;;;;;19.05;16.35;;;;;;;1.22;66.46;99495.94;4992214;28;104318;-69
2022/03/02 01:49:22;;;;;;;20.98;15.50;;;;;;;1.57;65.50;99496.84;5012442;28;103299;-68
2022/03/02 01:51:52;;;;;;;19.45;17.13;;;;;;;1.57;64.75;99491.63;4993812;28;102674;-69
2022/03/02 01:54:20;;;;;;;19.23;16.58;;;;;;;1.49;65.79;99492.69;5006266;28;103023;-68
2022/03/02 01:56:49;;;;;;;15.80;14.25;;;;;;;1.82;63.80;99484.09;4988565;28;104178;-69
2022/03/02 01:59:17;;;;;;;19.25;17.25;;;;;;;1.41;64.32;99479.88;4990177;28;103234;-68
2022/03/02 02:01:45;;;;;;;18.25;16.35;;;;;;;0.91;67.80;99480.13;5004839;28;102624;-68
2022/03/02 02:04:13;;;;;;;18.83;16.83;;;;;;;0.68;68.41;99471.94;5007505;28;103155;-68
2022/03/02 02:06:41;;;;;;;18.95;16.60;;;;;;;1.32;66.24;99464.44;5004307;28;103630;-68
2022/03/02 02:09:11;;;;;;;19.13;17.08;;;;;;;0.70;68.00;99467.59;5009757;27;103354;-68
2022/03/02 02:11:39;;;;;;;17.77;15.85;;;;;;;1.15;66.45;99456.19;5007963;28;102644;-68
2022/03/02 02:14:07;;;;;;;16.77;15.02;;;;;;;1.44;65.68;99445.09;4988410;28;102886;-68
2022/03/02 02:16:34;;;;;;;20.30;17.27;;;;;;;0.37;68.38;99446.56;5006334;28;103770;-69
2022/03/02 02:19:03;;;;;;;21.85;18.63;;;;;;;0.09;70.03;99447.97;5013650;28;103174;-77
2022/03/02 02:21:32;;;;;;;20.20;17.88;;;;;;;0.31;70.38;99441.50;5008580;28;102602;-76
2022/03/02 02:24:00;;;;;;;19.33;17.30;;;;;;;0.51;68.96;99441.94;4989606;28;103892;-76
2022/03/02 02:26:29;;;;;;;19.50;16.60;;;;;;;0.90;67.78;99445.44;5010867;28;103698;-76
2022/03/02 02:29:16;;;;;;;14.97;13.47;;;;;;;1.37;65.90;99431.38;4994824;28;103807;-76
2022/03/02 02:31:44;;;;;;;15.45;13.82;;;;;;;1.55;64.80;99417.91;4987164;28;103205;-76
2022/03/02 02:34:12;;;;;;;17.83;16.02;;;;;;;1.32;63.61;99422.78;5011501;28;103530;-76
2022/03/02 02:36:44;;;;;;;19.50;17.50;;;;;;;0.36;67.67;99413.69;5008350;28;104142;-76
2022/03/02 02:39:13;;;;;;;20.20;18.13;;;;;;;0.24;69.33;99416.50;5008545;28;103543;-76
2022/03/02 02:41:41;;;;;;;18.40;16.60;;;;;;;0.75;67.84;99406.78;5004812;28;102635;-76
2022/03/02 02:44:09;;;;;;;18.95;16.92;;;;;;;0.58;66.95;99409.75;5006112;28;102814;-77
2022/03/02 02:46:42;;;;;;;19.73;17.23;;;;;;;0.19;69.67;99417.50;5009300;28;103803;-77
2022/03/02 02:49:10;;;;;;;19.30;17.30;;;;;;;-0.37;70.60;99416.78;5009018;28;103419;-77
2022/03/02 02:51:39;;;;;;;19.48;17.30;;;;;;;-0.46;72.02;99423.88;4992557;28;103177;-77
2022/03/02 02:54:08;;;;;;;19.80;16.98;;;;;;;-0.44;72.65;99435.94;5010255;28;102905;-77
2022/03/02 02:56:36;;;;;;;17.27;15.57;;;;;;;0.41;69.98;99432.63;5008805;28;103253;-76
2022/03/02 02:59:06;;;;;;;14.50;13.10;;;;;;;0.92;68.16;99432.44;4988027;28;103237;-77
2022/03/02 03:01:34;;;;;;;15.65;13.90;;;;;;;1.23;66.27;99428.25;4987324;28;103035;-76
2022/03/02 03:04:03;;;;;;;13.32;12.02;;;;;;;1.38;64.82;99416.59;5016468;28;104246;-77
2022/03/02 03:06:31;;;;;;;16.05;14.35;;;;;;;1.32;64.45;99433.22;5012742;28;104076;-77
2022/03/02 03:08:59;;;;;;;17.25;15.35;;;;;;;1.16;64.97;99432.72;5008571;28;102741;-77
2022/03/02 03:11:28;;;;;;;18.70;16.73;;;;;;;0.54;67.26;99420.22;4993864;28;102567;-76
2022/03/02 03:13:57;;;;;;;19.48;17.48;;;;;;;-0.22;70.30;99429.50;5004152;28;103891;-77
2022/03/02 03:16:25;;;;;;;15.27;13.77;;;;;;;0.57;68.68;99430.56;5006748;28;103484;-76
2022/03/02 03:18:53;;;;;;;15.43;13.82;;;;;;;1.01;66.48;99427.84;5006517;28;103224;-76
2022/03/02 03:21:24;;;;;;;17.27;15.48;;;;;;;0.99;66.10;99429.66;5007673;28;102654;-76
2022/03/02 03:23:52;;;;;;;18.25;16.42;;;;;;;0.39;68.29;99426.59;5004996;28;102942;-76
2022/03/02 03:26:22;;;;;;;16.67;14.93;;;;;;;0.88;66.82;99420.38;5010877;28;104038;-76
2022/03/02 03:28:52;;;;;;;18.60;16.45;;;;;;;0.85;66.47;99421.28;5003707;28;103204;-76
2022/03/02 03:31:20;;;;;;;18.30;16.50;;;;;;;0.86;65.54;99412.59;4989504;28;102921;-76
2022/03/02 03:33:48;;;;;;;17.37;15.57;;;;;;;0.67;66.50;99402.63;5011443;28;103937;-69
2022/03/02 03:36:16;;;;;;;18.83;16.83;;;;;;;0.56;67.08;99408.06;5006301;28;103533;-67
2022/03/02 03:38:44;;;;;;;17.52;15.73;;;;;;;0.68;67.34;99405.19;5009664;28;103189;-67
2022/03/02 03:41:13;;;;;;;19.27;17.08;;;;;;;0.61;67.62;99410.56;5005493;28;102577;-67
2022/03/02 03:43:41;;;;;;;16.98;15.20;;;;;;;0.64;67.89;99420.91;4991411;28;102848;-67
2022/03/02 03:46:10;;;;;;;17.13;15.00;;;;;;;0.89;67.29;99417.75;4987620;28;103278;-67
2022/03/02 03:48:40;;;;;;;17.55;15.77;;;;;;;0.80;66.13;99427.47;5009079;28;103260;-67
2022/03/02 03:51:09;;;;;;;17.63;15.77;;;;;;;0.55;67.42;99411.56;4991906;28;102819;-67
2022/03/02 03:53:37;;;;;;;18.10;16.20;;;;;;;0.52;68.61;99422.00;5005634;28;104050;-67
2022/03/02 03:56:05;;;;;;;18.45;16.40;;;;;;;0.68;66.90;99413.00;5010617;28;103298;-67
2022/03/02 03:58:36;;;;;;;18.40;16.50;;;;;;;0.76;66.22;99415.44;5005231;28;103177;-67
2022/03/02 04:01:04;;;;;;;14.75;13.25;;;;;;;1.03;66.46;99413.09;5001741;28;103310;-67
2022/03/02 04:03:35;;;;;;;17.57;15.70;;;;;;;0.95;65.50;99411.56;4989774;28;103992;-67
2022/03/02 04:06:03;;;;;;;16.65;14.95;;;;;;;1.02;65.55;99403.56;4989575;28;104399;-67
2022/03/02 04:08:31;;;;;;;21.13;16.43;;;;;;;0.49;67.15;99402.13;5006194;28;103314;-67
2022/03/02 04:10:59;;;;;;;19.60;16.50;;;;;;;-0.39;69.79;99409.91;4985802;28;102754;-67
2022/03/02 04:13:27;;;;;;;18.15;16.27;;;;;;;-0.02;69.37;99403.16;5005707;28;102771;-67
2022/03/02 04:15:55;;;;;;;18.98;16.80;;;;;;;-0.01;69.84;99404.88;4987621;28;103833;-67
2022/03/02 04:18:23;;;;;;;18.38;16.13;;;;;;;0.18;68.47;99402.78;4986633;28;104232;-67
2022/03/02 04:20:53;;;;;;;16.83;15.03;;;;;;;0.66;67.13;99398.31;5008784;28;102727;-67
2022/03/02 04:23:22;;;;;;;16.70;14.67;;;;;;;0.91;65.38;99394.28;4988093;28;103021;-67
2022/03/02 04:25:50;;;;;;;18.13;15.90;;;;;;;0.42;66.81;99392.72;5004692;28;103310;-67
2022/03/02 04:28:18;;;;;;;17.42;15.52;;;;;;;0.50;66.45;99384.78;5008866;28;103602;-67
2022/03/02 04:30:46;;;;;;;17.08;15.18;;;;;;;0.86;65.55;99386.59;5007210;28;102976;-67
2022/03/02 04:33:17;;;;;;;15.10;13.60;;;;;;;1.03;64.92;99373.19;5009245;28;104205;-67
2022/03/02 04:35:45;;;;;;;14.88;13.38;;;;;;;1.16;64.30;99374.59;5013379;28;103246;-67
2022/03/02 04:38:15;;;;;;;15.65;14.13;;;;;;;1.25;63.48;99369.19;5012111;28;103196;-67
2022/03/02 04:40:43;;;;;;;14.38;12.88;;;;;;;1.21;63.69;99362.31;5007434;28;102825;-67
2022/03/02 04:43:11;;;;;;;15.45;13.93;;;;;;;1.14;63.55;99360.78;4989240;28;104474;-67
2022/03/02 04:45:39;;;;;;;17.10;15.40;;;;;;;0.81;64.22;99364.16;5006815;28;103222;-67
2022/03/02 04:48:09;;;;;;;16.03;14.40;;;;;;;0.81;64.47;99367.63;4991103;28;104309;-67
2022/03/02 04:50:38;;;;;;;16.08;14.48;;;;;;;-0.15;68.75;99362.72;5011173;28;102555;-67
2022/03/02 04:53:06;;;;;;;16.75;15.05;;;;;;;-0.07;68.56;99363.44;5010793;28;102736;-74
2022/03/02 04:55:35;;;;;;;17.53;15.60;;;;;;;-0.35;68.69;99370.00;5001683;28;103092;-74
2022/03/02 04:58:04;;;;;;;17.52;15.48;;;;;;;-0.46;69.27;99371.94;5009029;28;102964;-75
2022/03/02 05:00:34;;;;;;;17.10;15.40;;;;;;;-0.22;69.12;99358.50;4993377;28;102653;-74
2022/03/02 05:03:03;;;;;;;17.27;15.50;;;;;;;-0.04;68.25;99352.97;5011788;28;102711;-74
2022/03/02 05:05:35;;;;;;;18.03;16.13;;;;;;;-0.56;69.54;99360.03;5009258;28;103209;-74
2022/03/02 05:08:04;;;;;;;18.10;16.17;;;;;;;-0.54;70.47;99358.25;5010085;28;102968;-67
2022/03/02 05:10:32;;;;;;;17.10;15.40;;;;;;;-0.29;69.32;99356.94;4990552;28;102814;-74
2022/03/02 05:13:02;;;;;;;19.47;16.13;;;;;;;-0.06;69.18;99350.38;5005526;28;102805;-74
2022/03/02 05:15:30;;;;;;;17.17;15.38;;;;;;;-0.14;69.03;99348.84;5005013;28;104035;-67
2022/03/02 05:17:59;;;;;;;19.33;16.33;;;;;;;-0.53;70.16;99358.22;5012009;28;103265;-68
2022/03/02 05:20:27;;;;;;;17.75;15.63;;;;;;;-0.06;69.36;99354.75;5009524;28;102745;-67
2022/03/02 05:22:55;;;;;;;18.27;15.90;;;;;;;0.26;67.76;99347.16;4994211;28;102608;-67
2022/03/02 05:25:24;;;;;;;18.38;15.68;;;;;;;-0.10;68.79;99343.56;5008689;28;104108;-67
2022/03/02 05:27:52;;;;;;;15.77;14.20;;;;;;;0.35;67.71;99346.97;5009349;28;103244;-67
2022/03/02 05:30:22;;;;;;;15.67;14.07;;;;;;;0.51;65.77;99345.75;4989014;28;102674;-67
2022/03/02 05:32:50;;;;;;;15.48;13.93;;;;;;;0.70;65.36;99340.16;5008773;28;103822;-67
2022/03/02 05:35:18;;;;;;;14.55;13.05;;;;;;;0.61;64.50;99349.00;5008200;28;104159;-68
2022/03/02 05:37:46;;;;;;;16.33;14.63;;;;;;;0.36;65.38;99345.22;5008159;28;103160;-67
2022/03/02 05:40:17;;;;;;;15.30;13.70;;;;;;;0.52;65.34;99344.88;5007777;28;102773;-68
2022/03/02 05:42:51;;;;;;;15.93;13.40;;;;;;;0.74;64.67;99349.56;5009379;28;102696;-73
2022/03/02 05:45:19;;;;;;;17.80;14.60;;;;;;;0.52;64.15;99341.41;4990466;28;103306;-74
2022/03/02 05:47:49;;;;;;;17.20;15.40;;;;;;;-0.35;67.39;99346.66;5009186;28;103012;-67
2022/03/02 05:50:17;;;;;;;15.27;13.77;;;;;;;0.16;66.75;99339.59;5003621;28;102481;-67
2022/03/02 05:52:45;;;;;;;15.50;13.90;;;;;;;0.46;65.49;99341.53;5015163;28;102671;-67
2022/03/02 05:55:13;;;;;;;16.02;14.10;;;;;;;0.35;65.91;99340.91;5006505;28;103252;-67
2022/03/02 05:57:40;;;;;;;15.05;13.45;;;;;;;0.46;64.97;99344.13;4990797;28;104166;-68
2022/03/02 06:00:09;;;;;;;16.83;14.75;;;;;;;0.09;66.62;99343.19;5009255;28;103189;-67
2022/03/02 06:02:37;;;;;;;16.70;15.00;;;;;;;0.14;66.40;99341.38;4988545;28;103811;-67
2022/03/02 06:05:10;;;;;;;20.50;18.40;;;;;;;-0.26;69.33;99343.88;5009551;28;103972;-67
2022/03/02 06:07:38;;;;;;;20.90;17.27;;;;;;;0.53;67.34;99346.56;5012351;28;102948;-67
2022/03/02 06:10:07;;;;;;;24.38;19.90;;;;;;;0.91;65.99;99347.44;5009566;28;104192;-67
2022/03/02 06:12:36;;;;;;;23.23;19.85;;;;;;;1.13;64.59;99335.63;5012410;28;104013;-67
2022/03/02 06:15:05;;;;;;;26.85;21.42;;;;;;;1.12;65.22;99344.34;5007837;28;104066;-76
2022/03/02 06:17:33;;;;;;;18.63;16.57;;;;;;;1.35;64.72;99339.41;5006732;28;103205;-67
2022/03/02 06:20:02;;;;;;;17.90;16.10;;;;;;;0.70;67.23;99333.22;5005450;28;102872;-75
2022/03/02 06:22:37;;;;;;;16.33;14.63;;;;;;;1.26;65.33;99325.78;5013192;28;104297;-76
2022/03/02 06:25:08;;;;;;;15.20;13.60;;;;;;;1.43;64.48;99311.41;5017823;28;104245;-75
2022/03/02 06:27:38;;;;;;;19.58;16.73;;;;;;;0.17;68.04;99330.91;4990572;28;104146;-67
2022/03/02 06:30:07;;;;;;;17.63;15.67;;;;;;;0.02;68.96;99333.81;5010239;28;102654;-67
2022/03/02 06:32:35;;;;;;;17.23;15.38;;;;;;;0.55;66.94;99344.81;5006121;28;102732;-76
2022/03/02 06:35:04;;;;;;;16.23;14.50;;;;;;;1.16;65.54;99332.97;4990158;28;104197;-76
2022/03/02 06:37:37;;;;;;;17.33;15.52;;;;;;;1.53;64.56;99333.75;5008621;28;103453;-76
2022/03/02 06:40:08;;;;;;;17.00;15.25;;;;;;;1.65;63.85;99333.44;4989535;28;103507;-67
2022/03/02 06:42:47;;;;;;;16.10;14.40;;;;;;;1.62;64.22;99338.72;5008117;28;103957;-67
2022/03/02 06:45:25;;;;;;;14.93;13.10;;;;;;;1.87;63.81;99338.91;5002669;28;103247;-68
2022/03/02 06:47:58;;;;;;;14.97;13.47;;;;;;;2.04;63.09;99326.28;5000446;28;103218;-69
2022/03/02 06:50:27;;;;;;;19.05;14.88;;;;;;;1.85;63.09;99337.25;5002987;28;103053;-68
2022/03/02 06:52:56;;;;;;;16.00;14.27;;;;;;;2.01;62.81;99328.09;4986868;28;103820;-67
2022/03/02 06:55:26;;;;;;;16.13;14.38;;;;;;;2.12;62.17;99328.66;4990251;27;103258;-67
2022/03/02 06:57:57;;;;;;;17.25;14.50;;;;;;;2.13;62.39;99339.03;4999575;28;103181;-68
2022/03/02 07:00:26;;;;;;;15.95;14.23;;;;;;;2.36;61.28;99332.31;4999579;28;102687;-67
2022/03/02 07:03:02;;;;;;;19.30;15.85;;;;;;;2.36;61.18;99333.16;5001476;28;102771;-68
2022/03/02 07:05:31;;;;;;;19.42;16.55;;;;;;;1.93;62.32;99346.56;5000605;28;103305;-67
2022/03/02 07:08:03;;;;;;;18.30;16.25;;;;;;;1.93;62.54;99348.31;5003023;28;102987;-68
2022/03/02 07:10:32;;;;;;;16.87;14.90;;;;;;;2.20;62.05;99344.94;5012593;27;102903;-67
2022/03/02 07:13:01;;;;;;;17.73;15.20;;;;;;;2.38;61.39;99341.81;5006846;28;102578;-67
2022/03/02 07:15:30;;;;;;;16.50;14.53;;;;;;;2.63;60.90;99345.41;5000599;28;103224;-67
2022/03/02 07:17:59;;;;;;;17.33;15.50;;;;;;;2.57;61.65;99353.41;5004458;27;103206;-67
2022/03/02 07:20:28;;;;;;;16.63;14.93;;;;;;;2.82;60.59;99349.13;5005840;27;102864;-69
2022/03/02 07:22:58;;;;;;;18.88;15.55;;;;;;;2.76;61.17;99340.63;5002215;28;103659;-68
2022/03/02 07:25:30;;;;;;;15.85;14.18;;;;;;;2.92;60.60;99345.31;5000255;27;104414;-75
2022/03/02 07:28:00;;;;;;;18.38;15.43;;;;;;;3.11;60.62;99360.44;5004136;28;103215;-75
2022/03/02 07:30:29;;;;;;;18.60;15.38;;;;;;;3.02;59.75;99345.91;5010523;28;102657;-75
2022/03/02 07:33:02;;;;;;;17.13;15.43;;;;;;;2.89;61.30;99340.19;5005526;28;103609;-76
2022/03/02 07:35:33;;;;;;;20.98;17.38;;;;;;;2.24;62.22;99338.75;5012797;27;103243;-68
2022/03/02 07:38:01;;;;;;;20.73;16.60;;;;;;;2.40;63.43;99340.00;5001052;27;102626;-69
2022/03/02 07:40:31;;;;;;;16.27;14.57;;;;;;;3.03;60.99;99346.75;5003830;28;103599;-67
2022/03/02 07:42:59;;;;;;;17.83;15.93;;;;;;;3.02;60.29;99342.44;5005227;27;103741;-68
2022/03/02 07:45:28;;;;;;;20.55;15.65;;;;;;;3.23;59.51;99344.38;5006308;27;103211;-67
2022/03/02 07:47:57;;;;;;;16.95;15.25;;;;;;;3.41;58.96;99346.38;5005768;28;103383;-68
2022/03/02 07:50:28;;;;;;;19.27;16.33;;;;;;;3.40;60.28;99342.91;5026993;27;103103;-66
2022/03/02 07:52:58;;;;;;;24.63;17.85;;;;;;;2.76;60.16;99348.47;5003032;28;103962;-77
2022/03/02 07:55:29;;;;;;;20.52;17.35;;;;;;;2.26;63.43;99348.22;5006509;28;103401;-78
2022/03/02 07:58:00;;;;;;;23.20;17.48;;;;;;;2.55;62.65;99339.56;5003704;28;103002;-77
2022/03/02 08:00:28;;;;;;;23.67;17.80;;;;;;;3.07;60.53;99332.69;5000055;27;102815;-77
2022/03/02 08:02:59;;;;;;;19.95;16.75;;;;;;;2.76;62.52;99344.09;4998443;28;102998;-78
2022/03/02 08:05:27;;;;;;;19.17;15.97;;;;;;;3.37;61.73;99342.13;4998742;28;103445;-77
2022/03/02 08:07:55;;;;;;;20.85;16.58;;;;;;;3.57;59.68;99344.94;5001438;28;103527;-78
2022/03/02 08:10:24;;;;;;;18.00;16.10;;;;;;;3.89;58.93;99351.69;5003852;28;102795;-77
2022/03/02 08:12:53;;;;;;;21.98;17.25;;;;;;;3.66;59.34;99347.25;5002773;27;104681;-74
2022/03/02 08:15:28;;;;;;;21.88;17.20;;;;;;;3.74;58.55;99354.81;5007218;28;104285;-75
2022/03/02 08:17:56;;;;;;;19.45;16.80;;;;;;;3.66;59.24;99349.84;5004133;28;103309;-74
2022/03/02 08:20:49;;;;;;;18.58;16.25;;;;;;;4.06;57.99;99349.31;5000705;27;102682;-75
2022/03/02 08:23:19;;;;;;;18.38;16.00;;;;;;;4.28;58.40;99344.16;5014811;27;103148;-74
2022/03/02 08:25:48;;;;;;;19.00;16.92;;;;;;;3.94;58.34;99345.38;5013606;28;103925;-77
2022/03/02 08:28:18;;;;;;;19.80;17.08;;;;;;;4.20;57.34;99339.22;5008918;28;103171;-74
2022/03/02 08:30:50;;;;;;;19.08;16.10;;;;;;;4.56;56.41;99344.84;5015016;27;103130;-74
2022/03/02 08:33:25;;;;;;;20.40;17.08;;;;;;;4.55;56.40;99343.13;5014417;28;103462;-75
2022/03/02 08:35:54;;;;;;;18.90;16.40;;;;;;;4.85;55.99;99346.34;5009996;28;104208;-75
2022/03/02 08:38:23;;;;;;;17.83;15.98;;;;;;;4.87;55.78;99340.13;5010935;28;103175;-66
2022/03/02 08:40:52;;;;;;;20.05;16.73;;;;;;;4.93;55.23;99333.78;5008291;28;103329;-66
2022/03/02 08:43:20;;;;;;;21.42;16.30;;;;;;;4.67;55.85;99337.44;5012714;27;103494;-66
2022/03/02 08:45:52;;;;;;;16.67;14.63;;;;;;;5.03;55.15;99320.28;5011333;28;103455;-74
2022/03/02 08:48:21;;;;;;;18.87;16.87;;;;;;;4.72;54.27;99324.16;5012745;28;103224;-66
2022/03/02 08:50:52;;;;;;;17.75;15.85;;;;;;;4.88;54.05;99328.75;5010886;28;102747;-75
2022/03/02 08:53:20;;;;;;;18.70;16.52;;;;;;;4.90;54.30;99324.31;5011271;27;103689;-75
2022/03/02 08:55:49;;;;;;;16.83;15.13;;;;;;;5.48;52.85;99314.03;5011069;28;104235;-75
2022/03/02 08:58:18;;;;;;;18.83;16.83;;;;;;;5.35;53.61;99310.25;5008075;28;104083;-74
2022/03/02 09:00:46;;;;;;;18.53;16.37;;;;;;;5.25;53.26;99312.38;5010194;28;102905;-74
2022/03/02 09:03:16;;;;;;;18.27;15.93;;;;;;;5.34;52.30;99303.28;5006781;28;104068;-75
2022/03/02 09:05:45;;;;;;;17.25;15.02;;;;;;;5.55;52.55;99298.03;5011429;27;103556;-74
2022/03/02 09:08:14;;;;;;;17.52;15.77;;;;;;;5.60;52.24;99303.06;5008219;28;104150;-74
2022/03/02 09:10:43;;;;;;;15.80;14.10;;;;;;;5.41;52.67;99315.25;5013458;28;102611;-74
2022/03/02 09:13:11;;;;;;;17.65;15.85;;;;;;;5.32;51.30;99315.63;5012938;28;103896;-74
2022/03/02 09:15:40;;;;;;;16.17;14.48;;;;;;;6.00;51.12;99297.81;5012689;28;103079;-66
2022/03/02 09:18:08;;;;;;;16.43;14.73;;;;;;;6.19;50.74;99298.69;5009069;27;103242;-74
2022/03/02 09:20:38;;;;;;;17.83;14.90;;;;;;;6.29;51.20;99299.13;5008524;27;102963;-74
2022/03/02 09:23:06;;;;;;;15.97;14.27;;;;;;;6.33;50.98;99304.19;5006375;28;102636;-67
2022/03/02 09:25:40;;;;;;;17.33;15.13;;;;;;;5.37;52.02;99308.41;5009238;27;104408;-74
2022/03/02 09:28:11;;;;;;;18.63;15.38;;;;;;;5.82;51.07;99295.97;5011275;27;103150;-74
2022/03/02 09:30:39;;;;;;;16.77;14.85;;;;;;;5.89;50.73;99297.44;5011501;27;102678;-75
2022/03/02 09:33:13;;;;;;;15.77;14.18;;;;;;;6.42;49.34;99292.41;5005842;28;103973;-67
2022/03/02 09:35:44;;;;;;;14.55;13.05;;;;;;;6.23;48.14;99300.25;5008685;28;103441;-67
2022/03/02 09:38:12;;;;;;;14.30;12.80;;;;;;;6.73;48.10;99291.81;5007622;28;103050;-67
2022/03/02 09:40:44;;;;;;;14.88;13.25;;;;;;;6.92;48.84;99292.63;5011253;28;102642;-67
2022/03/02 09:43:19;;;;;;;15.73;14.07;;;;;;;7.07;48.46;99291.06;5010846;27;103894;-67
2022/03/02 09:45:51;;;;;;;16.00;13.90;;;;;;;7.07;47.62;99294.53;5011829;28;103725;-66
2022/03/02 09:48:30;;;;;;;15.57;13.40;;;;;;;7.10;46.67;99289.13;5010577;28;103228;-73
2022/03/02 09:51:03;;;;;;;20.90;14.43;;;;;;;7.37;47.02;99279.88;5005535;28;102955;-74
2022/03/02 09:53:33;;;;;;;14.90;12.80;;;;;;;7.35;45.87;99287.00;5005400;28;103917;-74
2022/03/02 09:56:05;;;;;;;15.32;13.05;;;;;;;7.42;46.51;99283.13;5010754;28;104077;-75
2022/03/02 09:58:38;;;;;;;14.60;13.00;;;;;;;7.53;46.37;99286.06;5006729;28;103267;-68
2022/03/02 10:01:16;;;;;;;13.88;12.50;;;;;;;7.77;45.73;99288.38;5004519;28;103063;-67
2022/03/02 10:03:47;;;;;;;13.80;12.27;;;;;;;7.48;45.65;99276.69;5005009;28;102628;-75
2022/03/02 10:06:18;;;;;;;15.05;12.55;;;;;;;7.75;45.00;99272.66;5016020;28;103342;-65
2022/03/02 10:08:48;;;;;;;13.77;12.37;;;;;;;7.46;44.09;99268.91;5007082;27;102637;-66
2022/03/02 10:11:20;;;;;;;13.32;11.90;;;;;;;8.36;44.98;99267.66;5005928;28;102658;-75
2022/03/02 10:13:48;;;;;;;15.90;12.23;;;;;;;8.43;44.78;99269.00;5007354;27;104117;-67
2022/03/02 10:16:22;;;;;;;14.80;12.27;;;;;;;8.56;43.08;99259.50;5011476;27;103815;-66
2022/03/02 10:18:56;;;;;;;14.70;13.20;;;;;;;9.14;42.62;99256.22;5004758;28;104222;-66
2022/03/02 10:21:29;;;;;;;15.27;13.10;;;;;;;8.01;42.31;99266.88;5003536;28;102673;-67
2022/03/02 10:24:01;;;;;;;13.75;12.43;;;;;;;8.74;43.54;99262.91;5005793;28;104556;-73
2022/03/02 10:26:31;;;;;;;15.80;13.00;;;;;;;7.28;43.51;99261.06;5008340;28;104268;-73
2022/03/02 10:29:04;;;;;;;16.53;13.07;;;;;;;7.95;43.32;99263.72;5008886;27;103167;-72
2022/03/02 10:31:51;;;;;;;13.68;12.27;;;;;;;8.11;43.86;99264.63;5005226;28;103709;-73
2022/03/02 10:34:36;;;;;;;15.93;13.27;;;;;;;8.68;43.86;99263.25;5012635;28;103147;-73
2022/03/02 10:37:29;;;;;;;15.57;13.30;;;;;;;7.06;44.05;99274.44;5006431;28;103986;-74
2022/03/02 10:40:05;;;;;;;14.93;13.43;;;;;;;7.54;45.09;99260.63;5009261;27;103150;-67
2022/03/02 10:42:37;;;;;;;12.88;11.57;;;;;;;8.56;43.08;99253.41;5009989;28;102826;-67
2022/03/02 10:45:12;;;;;;;13.85;12.52;;;;;;;7.64;43.62;99250.44;5006725;27;103960;-67
2022/03/02 10:47:53;;;;;;;16.85;12.63;;;;;;;8.22;43.99;99243.84;5003413;28;102677;-67
2022/03/02 10:50:22;;;;;;;13.02;11.73;;;;;;;9.10;42.94;99236.22;5005040;28;103086;-66
2022/03/02 10:52:54;;;;;;;13.27;11.97;;;;;;;9.27;43.18;99238.75;5006468;28;103797;-67
2022/03/02 10:55:23;;;;;;;14.07;12.43;;;;;;;9.07;43.25;99229.34;5004185;28;104014;-67
2022/03/02 10:57:53;;;;;;;15.70;12.60;;;;;;;8.73;43.21;99235.69;5008159;28;104104;-67
2022/03/02 11:00:23;;;;;;;14.70;13.20;;;;;;;9.04;42.83;99231.34;5009103;27;103320;-67
2022/03/02 11:02:57;;;;;;;13.95;12.55;;;;;;;8.45;42.90;99222.38;5006791;28;102680;-67
2022/03/02 11:05:28;;;;;;;13.75;12.35;;;;;;;8.71;43.45;99234.94;5008825;28;102739;-67
2022/03/02 11:07:58;;;;;;;16.58;12.95;;;;;;;8.10;42.33;99231.31;5001714;28;103930;-67
2022/03/02 11:10:33;;;;;;;14.38;12.88;;;;;;;8.02;43.49;99221.22;5008399;28;103175;-67
2022/03/02 11:13:10;;;;;;;14.13;12.73;;;;;;;7.79;44.56;99218.09;5000882;27;102707;-66
2022/03/02 11:15:55;;;;;;;13.77;12.43;;;;;;;8.65;42.46;99208.94;5016130;27;103655;-67
2022/03/02 11:18:33;;;;;;;14.98;13.52;;;;;;;8.84;43.27;99205.28;4996384;28;104097;-74
2022/03/02 11:21:06;;;;;;;13.47;12.07;;;;;;;7.61;42.43;99216.44;4996812;28;103168;-67
2022/03/02 11:23:42;;;;;;;13.30;11.95;;;;;;;7.97;43.25;99206.63;4985208;28;102604;-66
2022/03/02 11:26:12;;;;;;;14.38;12.98;;;;;;;8.76;42.91;99194.34;4999327;28;104144;-66
2022/03/02 11:28:45;;;;;;;15.90;13.18;;;;;;;8.39;43.08;99201.69;5007192;27;103484;-68